Main page
METAR-TAF:

METAR-TAF

Airports :

RoAF 71st Air Base

Câmpia Turzii, Romania

latitude: 46-30-12N, longitude: 023-53-07E, elevation: 324 m

Current weather observation

The report was made 4 hours and 34 minutes ago, at 23:00 UTC
Wind 5 kt from the South
Temperature 4°C
Humidity 87%
Pressure 1001 hPa
Visibility 10 km or more
Broken clouds at a height of 6000 ft

METAR: LRCT 022300Z 17005KT 9999 BKN060 04/02 Q1001 BLU BLU

Time: 05:34 (03:34 UTC)

Forecast

The report was made 4 hours and 34 minutes ago, at 23:00 UTC
Forecast valid from 03 at 00 UTC to 04 at 00 UTC
Wind 5 kt from the South
Visibility 10 km or more
Broken clouds at a height of 6000 ft
Temporary
from 03 at 06 UTC to 03 at 10 UTC
Broken clouds at a height of 4000 ft
Overcast at a height of 6000 ft
rain
Becoming
from 03 at 10 UTC to 03 at 12 UTC
Wind 15 kt from the North/Northwest

TAF: LRCT 022300Z 0300/0400 18005KT 9999 BKN060 TEMPO 0306/0310 RA BKN040 OVC060 BECMG 0310/0312 33015KT

Weather observations and forecasts of more than 4000 airports (METAR and TAF reports).

The available stations are represented by yellow and red dots on the map.

Hover mouse over dot to see the name of the station.

Then click to see weather observations and forecasts.

To change the map : click on the green buttons with a black cross to zoom in, on the green button with a dash to zoom out, or on the green arrows for adjacent maps.


METAR-TAF: